Time;durP1;ratioP1;P1;durP2;ratioP2;P2;SDS_P1;SDS_P2;PMS_P1;PMS_P2;Temp;Humidity;BMP_temperature;BMP_pressure;BME280_temperature;BME280_humidity;BME280_pressure;Samples;Min_cycle;Max_cycle;Signal;HPM_P1;HPM_P2
2022/03/14 00:01:52;;;;;;;2.33;1.38;;;;;;;14.32;49.90;101578.78;5101042;28;20048;-61
2022/03/14 00:04:21;;;;;;;1.00;0.90;;;;;;;14.32;49.88;101588.78;5094810;28;20080;-61
2022/03/14 00:06:49;;;;;;;1.40;1.10;;;;;;;14.32;49.72;101596.91;5102899;28;20048;-60
2022/03/14 00:09:17;;;;;;;0.73;0.73;;;;;;;14.31;50.22;101597.94;5102149;28;20052;-61
2022/03/14 00:11:45;;;;;;;2.38;1.30;;;;;;;14.30;49.74;101596.31;5096735;28;20051;-60
2022/03/14 00:14:13;;;;;;;1.63;1.30;;;;;;;14.29;49.82;101602.75;5099878;28;20568;-60
2022/03/14 00:16:44;;;;;;;2.25;1.20;;;;;;;14.29;50.07;101600.88;5094376;28;20121;-60
2022/03/14 00:19:14;;;;;;;1.77;1.30;;;;;;;14.28;50.06;101601.13;5104965;28;20052;-61
2022/03/14 00:21:44;;;;;;;1.20;1.10;;;;;;;14.28;50.16;101611.94;5106211;28;20047;-60
2022/03/14 00:24:12;;;;;;;2.08;1.25;;;;;;;14.27;50.20;101610.28;5106681;28;20076;-61
2022/03/14 00:26:40;;;;;;;1.85;1.30;;;;;;;14.26;50.06;101617.56;5105596;28;20497;-61
2022/03/14 00:29:09;;;;;;;1.27;1.05;;;;;;;14.25;49.80;101618.63;5102517;28;20056;-60
2022/03/14 00:31:37;;;;;;;1.98;1.30;;;;;;;14.23;49.96;101620.72;5105048;28;20165;-62
2022/03/14 00:34:06;;;;;;;1.50;1.13;;;;;;;14.23;50.20;101623.44;5106389;28;20040;-61
2022/03/14 00:36:34;;;;;;;1.60;1.27;;;;;;;14.22;50.30;101619.06;5106161;28;20052;-60
2022/03/14 00:39:03;;;;;;;4.00;1.08;;;;;;;14.21;50.33;101622.81;5102780;28;20067;-61
2022/03/14 00:41:31;;;;;;;1.63;1.33;;;;;;;14.20;50.56;101629.28;5095226;28;20067;-60
2022/03/14 00:43:59;;;;;;;3.58;1.20;;;;;;;14.19;50.13;101629.50;5094695;28;20079;-61
2022/03/14 00:46:27;;;;;;;2.60;1.50;;;;;;;14.18;50.26;101633.28;5100518;28;20079;-60
2022/03/14 00:48:55;;;;;;;1.08;0.93;;;;;;;14.16;50.33;101632.66;5106631;28;20362;-61
2022/03/14 00:51:23;;;;;;;1.85;1.30;;;;;;;14.15;50.24;101644.53;5105537;28;20080;-60
2022/03/14 00:53:51;;;;;;;2.55;1.33;;;;;;;14.12;50.74;101642.28;5104513;28;20051;-61
2022/03/14 00:56:20;;;;;;;1.35;1.10;;;;;;;14.11;50.75;101649.56;5101657;28;20048;-60
2022/03/14 00:58:48;;;;;;;1.98;1.25;;;;;;;14.09;50.66;101648.97;5103976;28;20092;-61
2022/03/14 01:01:15;;;;;;;2.38;1.42;;;;;;;14.10;50.69;101655.19;5105904;28;20075;-61
2022/03/14 01:03:43;;;;;;;2.22;1.38;;;;;;;14.08;50.61;101654.59;5104765;28;20496;-60
2022/03/14 01:06:11;;;;;;;2.03;1.52;;;;;;;14.07;50.58;101659.19;5105369;28;20071;-60
2022/03/14 01:08:39;;;;;;;1.98;1.40;;;;;;;14.07;50.63;101652.94;5105652;28;20083;-60
2022/03/14 01:11:06;;;;;;;1.30;1.17;;;;;;;14.05;50.71;101655.03;5104908;28;20458;-60
2022/03/14 01:13:36;;;;;;;1.88;1.00;;;;;;;13.99;50.67;101659.47;5105068;28;20052;-61
2022/03/14 01:16:04;;;;;;;1.92;1.35;;;;;;;14.02;50.67;101672.53;5103579;28;20044;-61
2022/03/14 01:18:33;;;;;;;3.47;1.48;;;;;;;14.01;51.17;101681.69;5102759;28;20047;-61
2022/03/14 01:21:01;;;;;;;1.77;1.30;;;;;;;13.99;50.98;101681.91;5104803;28;20512;-60
2022/03/14 01:23:28;;;;;;;2.75;1.63;;;;;;;13.99;50.94;101687.31;5104709;28;20067;-60
2022/03/14 01:25:56;;;;;;;1.83;1.40;;;;;;;13.98;50.99;101685.66;5098147;28;20113;-61
2022/03/14 01:28:24;;;;;;;4.28;1.60;;;;;;;13.96;50.96;101687.78;5099686;28;20373;-60
2022/03/14 01:30:53;;;;;;;2.15;1.60;;;;;;;13.91;51.10;101686.78;5102127;28;20090;-61
2022/03/14 01:33:20;;;;;;;2.47;1.50;;;;;;;13.94;50.72;101695.28;5103462;28;20165;-62
2022/03/14 01:35:48;;;;;;;2.13;1.33;;;;;;;13.93;50.89;101688.22;5097944;28;20082;-61
2022/03/14 01:38:16;;;;;;;1.50;1.30;;;;;;;13.93;50.91;101690.91;5104464;28;20086;-62
2022/03/14 01:40:44;;;;;;;1.52;1.23;;;;;;;13.93;51.13;101690.09;5100697;28;20123;-60
2022/03/14 01:43:11;;;;;;;2.60;1.55;;;;;;;13.92;51.15;101694.69;5104368;28;20068;-60
2022/03/14 01:45:39;;;;;;;1.90;1.25;;;;;;;13.91;51.24;101694.91;5101019;28;20067;-61
2022/03/14 01:48:09;;;;;;;1.25;1.15;;;;;;;13.91;50.82;101692.19;5105401;28;20072;-60
2022/03/14 01:50:36;;;;;;;2.22;1.20;;;;;;;13.89;50.71;101697.00;5101935;28;20405;-61
2022/03/14 01:53:05;;;;;;;2.97;1.33;;;;;;;13.90;50.94;101706.75;5105714;28;20572;-61
2022/03/14 01:55:32;;;;;;;1.40;1.10;;;;;;;13.89;51.40;101705.09;5097687;28;20080;-60
2022/03/14 01:58:03;;;;;;;1.67;1.40;;;;;;;13.88;51.02;101714.25;5092409;28;20054;-61
2022/03/14 02:00:32;;;;;;;2.30;1.60;;;;;;;13.88;51.39;101711.56;5104431;28;20109;-60
2022/03/14 02:02:59;;;;;;;1.35;1.10;;;;;;;13.85;51.42;101709.34;5105612;28;20051;-60
2022/03/14 02:05:29;;;;;;;2.28;1.60;;;;;;;13.85;51.09;101714.72;5103680;28;20074;-60
2022/03/14 02:07:57;;;;;;;1.80;1.40;;;;;;;13.83;51.13;101704.16;5096688;28;20044;-61
2022/03/14 02:10:25;;;;;;;2.15;1.50;;;;;;;13.72;51.42;101702.19;5103276;28;20051;-61
2022/03/14 02:12:53;;;;;;;2.42;1.63;;;;;;;13.81;51.50;101719.75;5103737;28;20116;-61
2022/03/14 02:15:20;;;;;;;1.75;1.27;;;;;;;13.80;51.40;101719.97;5103996;28;20051;-61
2022/03/14 02:17:48;;;;;;;2.03;1.50;;;;;;;13.80;51.34;101726.22;5099007;28;20155;-62
2022/03/14 02:20:17;;;;;;;3.42;1.73;;;;;;;13.78;51.50;101732.88;5100709;28;20082;-62
2022/03/14 02:22:45;;;;;;;1.70;1.20;;;;;;;13.76;51.68;101733.09;5104589;28;20076;-61
2022/03/14 02:25:12;;;;;;;2.08;1.60;;;;;;;13.74;51.67;101731.66;5094255;28;20051;-61
2022/03/14 02:27:40;;;;;;;1.98;1.48;;;;;;;13.73;51.81;101735.41;5104838;28;20052;-61
2022/03/14 02:30:09;;;;;;;2.55;1.70;;;;;;;13.73;51.51;101738.13;5103603;28;20051;-62
2022/03/14 02:32:39;;;;;;;2.63;1.90;;;;;;;13.71;51.93;101735.63;5103545;28;20043;-61
2022/03/14 02:35:08;;;;;;;2.28;1.60;;;;;;;13.69;51.96;101737.72;5101706;28;20048;-62
2022/03/14 02:37:37;;;;;;;2.03;1.73;;;;;;;13.70;51.77;101743.97;5095818;28;20077;-61
2022/03/14 02:40:07;;;;;;;2.00;1.58;;;;;;;13.68;52.22;101752.28;5095818;28;20052;-60
2022/03/14 02:42:35;;;;;;;2.53;1.77;;;;;;;13.65;52.12;101750.84;5104064;28;20063;-61
2022/03/14 02:45:04;;;;;;;2.10;1.70;;;;;;;13.65;52.40;101750.03;5103127;28;20052;-61
2022/03/14 02:47:31;;;;;;;2.58;1.80;;;;;;;13.63;51.92;101755.66;5100836;28;20041;-61
2022/03/14 02:50:00;;;;;;;3.53;1.88;;;;;;;13.61;52.54;101759.63;5101856;28;20087;-61
2022/03/14 02:52:28;;;;;;;3.28;2.20;;;;;;;13.60;52.37;101768.75;5104276;28;20094;-60
2022/03/14 02:54:57;;;;;;;2.63;1.70;;;;;;;13.59;52.10;101767.09;5103321;28;20123;-61
2022/03/14 02:57:25;;;;;;;3.38;1.85;;;;;;;13.59;52.60;101780.63;5092380;28;20080;-60
2022/03/14 02:59:52;;;;;;;2.95;1.88;;;;;;;13.56;52.11;101773.78;5099301;28;20131;-60
2022/03/14 03:02:22;;;;;;;2.90;1.60;;;;;;;13.56;52.42;101784.59;5093588;28;20048;-61
2022/03/14 03:04:50;;;;;;;3.65;1.67;;;;;;;13.54;52.11;101785.84;5099028;28;20044;-60
2022/03/14 03:07:19;;;;;;;2.55;1.88;;;;;;;13.50;52.18;101781.94;5103212;28;20051;-60
2022/03/14 03:09:46;;;;;;;2.10;1.40;;;;;;;13.53;52.34;101803.94;5102244;28;20075;-61
2022/03/14 03:12:16;;;;;;;2.13;1.42;;;;;;;13.52;52.36;101806.84;5102356;28;20521;-60
2022/03/14 03:14:44;;;;;;;1.92;1.58;;;;;;;13.52;52.58;101807.66;5102720;28;20048;-61
2022/03/14 03:17:12;;;;;;;2.72;1.83;;;;;;;13.52;52.15;101821.16;5099707;28;20082;-60
2022/03/14 03:19:39;;;;;;;1.80;1.42;;;;;;;13.51;52.48;101821.38;5102196;28;20048;-61
2022/03/14 03:22:07;;;;;;;3.03;1.60;;;;;;;13.50;52.09;101830.53;5100110;28;20076;-60
2022/03/14 03:24:35;;;;;;;2.45;1.52;;;;;;;13.50;52.47;101839.47;5103392;28;20474;-61
2022/03/14 03:27:03;;;;;;;2.03;1.63;;;;;;;13.48;52.62;101844.25;5103954;28;20387;-60
2022/03/14 03:29:32;;;;;;;1.80;1.20;;;;;;;13.49;52.44;101847.78;5100993;28;20083;-60
2022/03/14 03:31:59;;;;;;;1.98;1.30;;;;;;;13.48;52.47;101862.34;5103606;28;20047;-60
2022/03/14 03:34:27;;;;;;;2.33;1.40;;;;;;;13.47;52.56;101860.69;5102034;28;20108;-60
2022/03/14 03:36:55;;;;;;;1.92;1.40;;;;;;;13.46;52.58;101861.72;5097824;28;20036;-60
2022/03/14 03:39:23;;;;;;;1.73;1.40;;;;;;;13.43;52.29;101872.94;5092912;28;20067;-60
2022/03/14 03:41:50;;;;;;;2.67;1.50;;;;;;;13.45;52.32;101879.78;5103561;28;20047;-60
2022/03/14 03:44:18;;;;;;;2.35;1.50;;;;;;;13.43;52.31;101887.28;5099929;28;20079;-60
2022/03/14 03:46:47;;;;;;;1.60;1.40;;;;;;;13.42;52.49;101887.50;5099183;28;20108;-60
2022/03/14 03:49:15;;;;;;;2.97;1.83;;;;;;;13.35;52.66;101885.66;5098274;28;20107;-60
2022/03/14 03:51:43;;;;;;;2.95;1.98;;;;;;;13.40;53.25;101897.69;5106156;28;20048;-60
2022/03/14 03:54:10;;;;;;;2.00;1.50;;;;;;;13.37;53.58;101908.91;5107250;28;20072;-60
2022/03/14 03:56:39;;;;;;;1.90;1.30;;;;;;;13.34;53.12;101911.00;5103999;28;20044;-62
2022/03/14 03:59:07;;;;;;;3.60;1.52;;;;;;;13.33;53.80;101913.91;5106411;28;20040;-61
2022/03/14 04:01:35;;;;;;;2.10;1.48;;;;;;;13.31;53.78;101918.69;5103606;28;20051;-61
2022/03/14 04:04:05;;;;;;;1.73;1.30;;;;;;;13.29;54.21;101921.63;5097124;28;20111;-61
2022/03/14 04:06:34;;;;;;;3.95;1.40;;;;;;;13.28;54.44;101916.44;5106952;28;20045;-60
2022/03/14 04:09:03;;;;;;;3.78;1.52;;;;;;;13.13;54.46;101896.94;5104402;28;20083;-61
2022/03/14 04:11:31;;;;;;;2.33;1.50;;;;;;;13.26;54.56;101929.31;5104720;28;20086;-60
2022/03/14 04:13:59;;;;;;;2.78;1.50;;;;;;;13.25;54.65;101941.97;5101704;28;20063;-60
2022/03/14 04:16:27;;;;;;;2.38;1.70;;;;;;;13.22;54.89;101936.19;5106421;28;20040;-60
2022/03/14 04:18:56;;;;;;;2.22;1.70;;;;;;;13.22;54.62;101941.56;5101996;28;20473;-61
2022/03/14 04:21:25;;;;;;;3.80;1.45;;;;;;;13.15;54.71;101938.03;5105655;28;20062;-60
2022/03/14 04:23:52;;;;;;;2.65;1.70;;;;;;;13.18;55.09;101949.28;5097828;28;21271;-61
2022/03/14 04:26:20;;;;;;;2.25;1.65;;;;;;;13.17;55.15;101954.88;5104681;28;20109;-61
2022/03/14 04:28:48;;;;;;;2.80;1.80;;;;;;;13.05;54.96;101935.78;5105014;28;20048;-61
2022/03/14 04:31:16;;;;;;;2.75;1.50;;;;;;;13.14;54.70;101964.19;5102987;28;20067;-60
2022/03/14 04:33:44;;;;;;;4.38;1.80;;;;;;;13.13;54.83;101967.94;5104320;28;20428;-61
2022/03/14 04:36:13;;;;;;;3.90;1.70;;;;;;;13.12;54.66;101971.69;5098234;28;20051;-60
2022/03/14 04:38:42;;;;;;;3.13;1.55;;;;;;;13.12;54.95;101976.25;5098476;28;20537;-61
2022/03/14 04:41:10;;;;;;;2.38;1.70;;;;;;;13.12;54.67;101981.66;5106025;28;20052;-60
2022/03/14 04:43:38;;;;;;;3.17;2.17;;;;;;;13.10;54.82;101976.47;5095804;28;20063;-61
2022/03/14 04:46:06;;;;;;;3.25;1.73;;;;;;;13.11;54.57;101979.97;5103770;28;20059;-61
2022/03/14 04:48:34;;;;;;;4.43;1.95;;;;;;;13.09;54.90;101977.50;5106592;28;20055;-60
2022/03/14 04:51:01;;;;;;;2.72;1.67;;;;;;;13.09;54.48;101979.38;5105109;28;20075;-61
2022/03/14 04:53:29;;;;;;;2.50;1.75;;;;;;;13.08;54.51;101988.50;5105933;28;20083;-61
2022/03/14 04:55:58;;;;;;;3.35;1.70;;;;;;;13.08;54.68;101989.34;5103607;28;20090;-61
2022/03/14 04:58:26;;;;;;;2.28;1.42;;;;;;;13.06;55.00;101996.81;5101458;28;20063;-60
2022/03/14 05:00:54;;;;;;;4.00;1.65;;;;;;;13.04;54.92;101999.72;5105365;28;20055;-61
2022/03/14 05:03:22;;;;;;;1.98;1.70;;;;;;;13.04;54.85;102004.28;5095772;28;20059;-61
2022/03/14 05:05:50;;;;;;;3.42;1.77;;;;;;;13.03;54.96;102010.72;5102327;28;20108;-62
2022/03/14 05:08:18;;;;;;;3.58;1.92;;;;;;;13.01;54.96;102019.03;5099265;28;20051;-61
2022/03/14 05:10:46;;;;;;;2.95;1.60;;;;;;;12.99;54.81;102026.50;5109920;28;20082;-61
2022/03/14 05:13:15;;;;;;;3.03;1.63;;;;;;;12.99;54.92;102026.50;5101237;28;20079;-61
2022/03/14 05:15:43;;;;;;;4.38;2.33;;;;;;;12.98;55.06;102030.25;5104886;28;20104;-61
2022/03/14 05:18:10;;;;;;;4.05;2.03;;;;;;;12.96;54.92;102037.72;5105736;28;20066;-61
2022/03/14 05:20:39;;;;;;;2.70;1.98;;;;;;;12.83;54.93;102023.41;5095368;28;20052;-61
2022/03/14 05:23:07;;;;;;;3.63;2.63;;;;;;;12.93;54.93;102045.41;5105734;28;20075;-61
2022/03/14 05:25:34;;;;;;;6.18;2.70;;;;;;;12.91;55.16;102055.56;5105364;28;20103;-61
2022/03/14 05:28:02;;;;;;;3.40;2.03;;;;;;;12.89;55.01;102054.94;5104866;28;20072;-61
2022/03/14 05:30:31;;;;;;;4.72;2.33;;;;;;;12.87;55.30;102057.03;5104314;28;20084;-61
2022/03/14 05:32:59;;;;;;;4.18;2.50;;;;;;;12.88;54.99;102066.78;5105520;28;20048;-61
2022/03/14 05:35:28;;;;;;;3.80;2.33;;;;;;;12.86;55.18;102074.25;5090448;28;20072;-61
2022/03/14 05:37:56;;;;;;;6.43;3.33;;;;;;;12.82;55.28;102065.72;5101061;28;20080;-61
2022/03/14 05:40:24;;;;;;;6.32;3.55;;;;;;;12.81;55.49;102080.25;5099236;28;20048;-61
2022/03/14 05:42:52;;;;;;;5.63;3.22;;;;;;;12.80;55.41;102083.16;5103982;28;20090;-60
2022/03/14 05:45:21;;;;;;;5.85;3.95;;;;;;;12.79;55.39;102092.28;5103997;28;20075;-60
2022/03/14 05:47:51;;;;;;;4.47;2.95;;;;;;;12.77;55.06;102091.66;5104753;28;20116;-61
2022/03/14 05:50:19;;;;;;;6.45;3.63;;;;;;;12.77;55.43;102100.59;5101983;28;20091;-60
2022/03/14 05:52:47;;;;;;;7.43;3.72;;;;;;;12.75;55.63;102097.28;5103466;28;20127;-60
2022/03/14 05:55:15;;;;;;;7.65;3.83;;;;;;;12.74;55.33;102100.16;5104726;28;20474;-60
2022/03/14 05:57:44;;;;;;;8.23;3.90;;;;;;;12.73;55.59;102099.34;5100723;28;20513;-60
2022/03/14 06:00:13;;;;;;;6.43;3.70;;;;;;;12.71;55.51;102106.81;5097618;28;20051;-61
2022/03/14 06:02:46;;;;;;;6.03;3.47;;;;;;;12.71;55.59;102107.63;5097869;28;20108;-61
2022/03/14 06:05:16;;;;;;;8.25;3.47;;;;;;;12.70;55.70;102118.63;5099216;28;20214;-61
2022/03/14 06:07:44;;;;;;;4.45;3.25;;;;;;;12.69;55.50;102120.50;5103571;28;20067;-61
2022/03/14 06:10:15;;;;;;;5.70;3.47;;;;;;;12.69;55.38;102114.28;5095845;28;20086;-60
2022/03/14 06:12:44;;;;;;;6.93;3.17;;;;;;;12.69;55.49;102120.50;5100483;28;20044;-61
2022/03/14 06:15:14;;;;;;;6.10;3.97;;;;;;;12.69;55.35;102120.50;5096902;28;20052;-61
2022/03/14 06:17:42;;;;;;;4.50;3.10;;;;;;;12.69;55.45;102125.91;5101128;28;20082;-61
2022/03/14 06:20:12;;;;;;;6.43;3.30;;;;;;;12.68;55.32;102129.63;5097962;28;20505;-61
2022/03/14 06:22:42;;;;;;;8.15;4.28;;;;;;;12.68;55.11;102135.03;5099506;28;20083;-61
2022/03/14 06:25:10;;;;;;;6.90;3.58;;;;;;;12.66;54.92;102150.56;5099643;28;20042;-61
2022/03/14 06:27:38;;;;;;;5.30;2.85;;;;;;;12.68;54.98;102155.78;5104048;28;20044;-61
2022/03/14 06:30:07;;;;;;;6.00;3.08;;;;;;;12.68;55.33;102161.16;5096758;28;20051;-61
2022/03/14 06:32:36;;;;;;;6.82;3.55;;;;;;;12.67;55.12;102163.03;5096194;28;20066;-61
2022/03/14 06:35:04;;;;;;;6.03;3.13;;;;;;;12.67;54.90;102170.28;5101009;28;20040;-61
2022/03/14 06:37:32;;;;;;;5.63;3.40;;;;;;;12.67;54.98;102171.13;5102907;28;20044;-60
2022/03/14 06:40:02;;;;;;;7.80;3.20;;;;;;;12.65;55.35;102173.19;5100542;28;20111;-62
2022/03/14 06:42:30;;;;;;;8.63;4.82;;;;;;;12.65;55.18;102173.19;5103678;28;20043;-61
2022/03/14 06:45:02;;;;;;;6.47;3.20;;;;;;;12.63;55.09;102167.16;5101460;28;20144;-61
2022/03/14 06:47:32;;;;;;;5.40;3.38;;;;;;;12.63;55.07;102169.88;5098966;28;20040;-62
2022/03/14 06:49:59;;;;;;;7.88;3.63;;;;;;;12.63;55.33;102177.94;5095513;28;20068;-62
2022/03/14 06:52:27;;;;;;;5.72;3.10;;;;;;;12.60;55.32;102167.56;5103802;28;20120;-61
2022/03/14 06:54:55;;;;;;;6.78;3.42;;;;;;;12.60;55.44;102172.97;5103263;28;20059;-61
2022/03/14 06:57:24;;;;;;;6.15;3.40;;;;;;;12.61;55.15;102189.97;4740288;28;10000156;-62
2022/03/14 06:59:52;;;;;;;7.05;3.60;;;;;;;12.59;55.43;102192.88;5096278;28;20048;-61
2022/03/14 07:02:21;;;;;;;5.97;4.03;;;;;;;12.60;55.32;102196.41;5096644;28;20074;-62
2022/03/14 07:04:49;;;;;;;4.95;3.22;;;;;;;12.59;55.31;102192.88;5092881;28;20091;-60
2022/03/14 07:07:16;;;;;;;8.82;4.00;;;;;;;12.57;55.40;102197.66;5093240;28;20078;-60
2022/03/14 07:09:44;;;;;;;7.03;4.03;;;;;;;12.55;55.84;102197.00;5094124;28;20090;-60
2022/03/14 07:12:12;;;;;;;9.60;3.88;;;;;;;12.55;55.87;102204.28;5091206;28;20119;-60
2022/03/14 07:14:41;;;;;;;7.57;3.95;;;;;;;12.54;55.81;102208.84;5092314;28;20092;-60
2022/03/14 07:17:09;;;;;;;10.65;4.18;;;;;;;12.53;55.69;102203.66;5098382;28;20052;-70
2022/03/14 07:19:42;;;;;;;10.20;5.47;;;;;;;12.51;56.74;102216.50;5093949;28;20252;-59
2022/03/14 07:22:10;;;;;;;9.40;4.72;;;;;;;12.50;56.44;102212.13;5096557;28;20105;-60
2022/03/14 07:24:38;;;;;;;8.98;4.22;;;;;;;12.49;56.45;102216.69;5098629;28;20052;-58
2022/03/14 07:27:06;;;;;;;10.38;5.22;;;;;;;12.49;56.29;102214.00;5097109;28;20103;-59
2022/03/14 07:29:34;;;;;;;13.65;4.55;;;;;;;12.50;56.29;102217.53;5097639;28;20107;-60
2022/03/14 07:32:03;;;;;;;8.23;4.63;;;;;;;12.49;55.92;102227.47;5096690;28;20131;-60
2022/03/14 07:34:32;;;;;;;10.65;5.07;;;;;;;12.49;56.17;102223.94;5096961;28;20071;-60
2022/03/14 07:36:59;;;;;;;8.63;3.95;;;;;;;12.37;55.99;102208.34;5097149;28;20139;-60
2022/03/14 07:39:27;;;;;;;8.48;4.25;;;;;;;12.49;56.05;102230.19;5094977;28;20084;-60
2022/03/14 07:41:55;;;;;;;9.38;4.57;;;;;;;12.48;55.92;102231.22;5098057;28;20108;-60
2022/03/14 07:44:23;;;;;;;9.02;4.18;;;;;;;12.30;56.28;102204.78;5097465;28;20080;-62
2022/03/14 07:46:50;;;;;;;7.32;4.15;;;;;;;12.48;55.83;102235.78;5098654;28;20062;-61
2022/03/14 07:49:21;;;;;;;10.52;4.07;;;;;;;12.49;56.11;102245.53;5094241;28;20056;-61
2022/03/14 07:51:49;;;;;;;6.32;4.00;;;;;;;12.49;55.92;102242.81;5098047;28;20055;-60
2022/03/14 07:54:17;;;;;;;10.45;4.63;;;;;;;12.49;55.91;102238.28;5092146;28;20524;-62
2022/03/14 07:56:45;;;;;;;8.35;4.20;;;;;;;12.50;55.97;102247.19;5098331;28;20039;-60
2022/03/14 07:59:12;;;;;;;6.97;3.78;;;;;;;12.50;55.77;102261.50;5102175;28;20080;-59
2022/03/14 08:01:40;;;;;;;7.25;4.10;;;;;;;12.49;55.99;102262.53;5092784;28;20048;-60
2022/03/14 08:04:08;;;;;;;11.50;4.63;;;;;;;12.50;55.87;102266.06;5098678;28;20067;-60
2022/03/14 08:06:41;;;;;;;12.13;4.40;;;;;;;12.51;55.88;102273.13;5100367;28;20128;-59
2022/03/14 08:09:09;;;;;;;8.95;4.45;;;;;;;12.51;56.04;102268.56;5102311;28;20079;-59
2022/03/14 08:11:39;;;;;;;8.80;4.55;;;;;;;12.50;55.85;102266.91;5095344;28;20060;-59
2022/03/14 08:14:06;;;;;;;8.73;4.22;;;;;;;12.51;56.11;102278.50;5097860;28;20059;-59
2022/03/14 08:16:34;;;;;;;9.73;4.25;;;;;;;12.51;55.88;102273.13;5102465;28;20048;-58
2022/03/14 08:19:03;;;;;;;8.20;4.50;;;;;;;12.48;56.06;102274.34;5101802;28;20044;-60
2022/03/14 08:21:31;;;;;;;11.50;4.43;;;;;;;12.49;56.02;102283.28;5101807;28;20055;-60
2022/03/14 08:24:00;;;;;;;10.40;4.03;;;;;;;12.48;56.36;102278.91;5102776;28;20484;-60
2022/03/14 08:26:28;;;;;;;9.55;4.00;;;;;;;12.48;56.18;102295.94;5102862;28;20112;-59
2022/03/14 08:28:55;;;;;;;8.57;4.45;;;;;;;12.48;56.37;102292.41;5100369;28;20130;-60
2022/03/14 08:31:30;;;;;;;8.85;4.72;;;;;;;12.49;56.24;102299.47;5096059;28;20055;-60
2022/03/14 08:34:00;;;;;;;7.90;4.47;;;;;;;12.48;55.96;102295.94;5093198;28;20044;-61
2022/03/14 08:36:28;;;;;;;10.45;4.43;;;;;;;12.48;56.26;102295.09;5102480;28;20048;-59
2022/03/14 08:38:56;;;;;;;7.25;4.10;;;;;;;12.47;56.45;102298.81;5100209;28;20076;-59
2022/03/14 08:41:25;;;;;;;9.88;4.75;;;;;;;12.47;56.37;102302.34;5102920;28;20059;-61
2022/03/14 08:43:53;;;;;;;11.70;4.63;;;;;;;12.48;56.16;102312.09;5098811;28;20094;-60
2022/03/14 08:46:21;;;;;;;9.98;4.63;;;;;;;12.46;56.37;102322.25;5105740;28;20076;-59
2022/03/14 08:48:49;;;;;;;12.13;4.65;;;;;;;12.53;56.46;102330.38;5099380;28;20314;-64
2022/03/14 08:51:17;;;;;;;6.85;4.15;;;;;;;12.64;55.95;102329.84;5104489;28;20112;-62
2022/03/14 08:53:45;;;;;;;10.05;4.75;;;;;;;12.73;55.92;102335.91;5105474;28;20072;-60
2022/03/14 08:56:13;;;;;;;10.48;5.68;;;;;;;12.87;55.43;102337.63;5105782;28;20090;-60
2022/03/14 08:58:42;;;;;;;8.95;3.95;;;;;;;13.01;55.09;102342.03;5105383;28;20083;-59
2022/03/14 09:01:11;;;;;;;9.90;4.07;;;;;;;13.13;54.72;102342.31;5097795;28;20453;-60
2022/03/14 09:03:39;;;;;;;8.23;4.72;;;;;;;13.29;54.32;102358.19;5105633;28;20056;-59
2022/03/14 09:06:07;;;;;;;10.18;4.30;;;;;;;13.41;53.68;102342.22;5104800;28;20362;-59
2022/03/14 09:08:35;;;;;;;10.32;4.38;;;;;;;13.55;53.53;102360.13;5100345;28;20076;-59
2022/03/14 09:11:03;;;;;;;8.98;4.38;;;;;;;13.67;52.80;102356.59;5104758;28;20087;-59
2022/03/14 09:13:30;;;;;;;13.18;4.97;;;;;;;13.83;52.83;102359.97;5105161;28;20086;-59
2022/03/14 09:15:59;;;;;;;11.10;4.53;;;;;;;13.96;52.37;102360.75;5102911;28;20048;-60
2022/03/14 09:18:31;;;;;;;9.32;4.22;;;;;;;14.03;52.33;102374.28;5105572;28;20178;-59
2022/03/14 09:20:59;;;;;;;10.05;4.07;;;;;;;14.04;51.96;102380.53;5104569;28;20098;-59
2022/03/14 09:23:27;;;;;;;10.02;3.90;;;;;;;13.98;51.98;102382.19;5105703;28;20055;-59
2022/03/14 09:25:56;;;;;;;8.65;5.32;;;;;;;13.87;53.03;102380.09;5102963;28;20128;-59
2022/03/14 09:28:25;;;;;;;8.38;4.40;;;;;;;13.77;53.27;102379.69;5105164;28;20145;-59
2022/03/14 09:30:53;;;;;;;9.98;4.15;;;;;;;13.59;53.44;102374.88;5094964;28;20052;-60
2022/03/14 09:33:22;;;;;;;11.43;3.95;;;;;;;13.56;53.92;102391.50;5104482;28;20051;-58
2022/03/14 09:35:50;;;;;;;11.60;4.85;;;;;;;13.43;54.00;102383.34;5103943;28;20144;-59
2022/03/14 09:38:18;;;;;;;9.40;4.45;;;;;;;13.42;53.90;102398.72;5102429;28;20413;-59
2022/03/14 09:40:47;;;;;;;7.30;3.85;;;;;;;13.35;54.12;102395.16;5105129;28;20052;-58
2022/03/14 09:43:18;;;;;;;12.80;4.95;;;;;;;13.31;54.38;102412.81;5093321;28;20048;-61
2022/03/14 09:45:48;;;;;;;10.77;4.25;;;;;;;13.25;54.77;102410.91;5099822;28;20079;-59
2022/03/14 09:48:17;;;;;;;8.23;3.88;;;;;;;13.19;54.81;102417.13;5104051;28;20485;-59
2022/03/14 09:50:47;;;;;;;10.07;3.65;;;;;;;13.15;54.54;102421.22;5104112;28;20059;-59
2022/03/14 09:53:17;;;;;;;12.82;3.95;;;;;;;13.10;54.77;102424.53;5101391;28;20067;-59
2022/03/14 09:55:48;;;;;;;6.97;4.03;;;;;;;13.08;54.70;102433.84;5104738;28;20056;-59
2022/03/14 09:58:17;;;;;;;10.38;4.30;;;;;;;13.04;54.72;102430.72;5104482;28;20064;-58
2022/03/14 10:00:46;;;;;;;10.80;4.15;;;;;;;13.01;55.00;102431.94;5096293;28;20079;-59
2022/03/14 10:03:19;;;;;;;7.95;3.65;;;;;;;12.99;54.83;102444.81;5105322;28;20064;-59
2022/03/14 10:05:50;;;;;;;9.23;4.05;;;;;;;13.00;55.22;102454.56;5102773;28;20052;-59
2022/03/14 10:08:18;;;;;;;6.95;3.55;;;;;;;12.98;54.86;102458.50;5098213;28;20378;-59
2022/03/14 10:10:46;;;;;;;9.02;3.53;;;;;;;12.96;54.94;102474.06;5101212;28;20048;-61
2022/03/14 10:13:34;;;;;;;12.35;4.38;;;;;;;12.92;54.84;102473.63;5104337;28;20138;-60
2022/03/14 10:16:03;;;;;;;8.38;3.42;;;;;;;13.00;54.80;102468.06;5101900;28;20051;-59
2022/03/14 10:18:36;;;;;;;7.47;3.47;;;;;;;13.14;54.28;102470.84;5104047;28;20052;-60
2022/03/14 10:21:06;;;;;;;9.10;3.15;;;;;;;13.29;53.90;102466.19;5102419;28;20055;-60
2022/03/14 10:23:39;;;;;;;8.82;4.28;;;;;;;13.39;53.71;102465.81;5092480;28;20450;-59
2022/03/14 10:26:07;;;;;;;9.48;3.38;;;;;;;13.58;53.44;102478.56;5093990;28;20044;-59
2022/03/14 10:28:38;;;;;;;7.97;3.50;;;;;;;13.75;52.94;102477.19;5093357;28;20067;-59
2022/03/14 10:31:32;;;;;;;5.80;3.13;;;;;;;13.94;51.92;102483.66;5103477;28;20048;-60
2022/03/14 10:34:03;;;;;;;9.32;3.58;;;;;;;14.04;51.63;102486.78;5104286;28;20083;-58
2022/03/14 10:36:47;;;;;;;7.13;3.75;;;;;;;14.09;51.42;102480.75;5093783;28;20052;-59
2022/03/14 10:39:20;;;;;;;12.98;3.78;;;;;;;14.02;51.68;102487.00;5087591;28;20143;-59
2022/03/14 10:42:01;;;;;;;5.93;3.10;;;;;;;13.93;52.00;102496.31;5099434;28;20048;-59
2022/03/14 10:44:45;;;;;;;7.72;3.42;;;;;;;13.78;52.86;102494.84;5103234;28;20234;-59
2022/03/14 10:47:13;;;;;;;12.15;4.13;;;;;;;13.67;53.22;102504.38;5103233;28;20052;-59
2022/03/14 10:49:43;;;;;;;10.15;3.55;;;;;;;13.58;53.11;102511.81;5101889;28;20044;-57
2022/03/14 10:52:15;;;;;;;10.32;3.80;;;;;;;13.52;53.31;102514.50;5103004;28;20052;-60
2022/03/14 10:54:43;;;;;;;7.00;3.35;;;;;;;13.45;53.67;102519.84;5102364;28;20077;-60
2022/03/14 10:57:13;;;;;;;8.95;3.38;;;;;;;13.41;53.64;102513.19;5096546;28;20405;-60
2022/03/14 10:59:42;;;;;;;8.32;3.58;;;;;;;13.35;53.72;102516.69;5089459;28;20390;-59
2022/03/14 11:02:12;;;;;;;9.35;4.13;;;;;;;13.32;54.10;102523.31;5102341;28;20072;-59
2022/03/14 11:04:42;;;;;;;9.52;3.70;;;;;;;13.25;54.17;102522.44;5091421;28;20406;-59
2022/03/14 11:07:10;;;;;;;11.18;3.53;;;;;;;13.21;54.28;102523.88;5094096;28;20075;-59
2022/03/14 11:09:45;;;;;;;6.63;3.20;;;;;;;13.17;54.36;102521.78;5101253;28;20051;-62
2022/03/14 11:12:15;;;;;;;8.18;3.80;;;;;;;13.16;54.17;102514.66;5103192;28;20070;-59
2022/03/14 11:14:51;;;;;;;7.40;2.70;;;;;;;13.16;54.41;102517.38;5101096;28;20053;-59
2022/03/14 11:17:20;;;;;;;8.20;3.17;;;;;;;13.13;53.95;102518.59;4739019;28;9999787;-59
2022/03/14 11:19:49;;;;;;;6.43;2.83;;;;;;;13.13;54.66;102520.47;5098744;28;20078;-58
2022/03/14 11:22:18;;;;;;;8.05;3.33;;;;;;;13.11;54.50;102515.25;5098088;28;20480;-59
2022/03/14 11:24:49;;;;;;;9.50;3.20;;;;;;;13.10;54.74;102520.84;5094364;28;20044;-59
2022/03/14 11:27:22;;;;;;;5.57;3.03;;;;;;;13.07;54.68;102513.16;5098910;28;20603;-59
2022/03/14 11:29:53;;;;;;;6.57;2.85;;;;;;;13.07;54.47;102516.69;5095127;28;20198;-58
2022/03/14 11:32:22;;;;;;;7.22;3.22;;;;;;;13.08;54.61;102507.56;5095737;28;20076;-58